Time;durP1;ratioP1;P1;durP2;ratioP2;P2;SDS_P1;SDS_P2;PMS_P1;PMS_P2;Temp;Humidity;BMP_temperature;BMP_pressure;BME280_temperature;BME280_humidity;BME280_pressure;Samples;Min_cycle;Max_cycle;Signal;HPM_P1;HPM_P2
2021/05/07 00:00:18;;;;;;;1.87;0.90;;;;;;;14.19;48.87;100422.25;1781693;79;21126;-64
2021/05/07 00:02:46;;;;;;;3.10;1.07;;;;;;;14.13;49.14;100424.63;1792141;80;21540;-48
2021/05/07 00:05:14;;;;;;;1.95;1.10;;;;;;;14.06;49.33;100429.66;1792568;80;21624;-58
2021/05/07 00:07:41;;;;;;;1.98;1.00;;;;;;;14.02;49.52;100431.52;1792779;80;21630;-64
2021/05/07 00:10:13;;;;;;;2.65;1.10;;;;;;;13.97;49.62;100435.59;1778380;79;21597;-64
2021/05/07 00:12:44;;;;;;;2.02;1.20;;;;;;;13.91;49.71;100438.86;1719113;83;21119;-64
2021/05/07 00:15:13;;;;;;;2.67;1.40;;;;;;;13.85;49.74;100434.61;1791679;80;21567;-64
2021/05/07 00:17:41;;;;;;;2.52;1.02;;;;;;;13.81;49.82;100423.21;1814262;79;21178;-48
2021/05/07 00:20:10;;;;;;;2.37;1.40;;;;;;;13.78;50.04;100417.99;1750718;82;21131;-48
2021/05/07 00:22:41;;;;;;;4.22;1.40;;;;;;;13.75;50.19;100414.57;1735322;82;21155;-48
2021/05/07 00:25:11;;;;;;;2.58;1.37;;;;;;;13.72;50.39;100419.47;1800049;79;21196;-48
2021/05/07 00:27:39;;;;;;;2.80;1.55;;;;;;;13.62;50.70;100426.77;1719864;83;21305;-64
2021/05/07 00:30:09;;;;;;;2.22;1.15;;;;;;;13.56;50.48;100425.59;1810186;79;21162;-64
2021/05/07 00:32:36;;;;;;;2.98;1.10;;;;;;;13.46;50.65;100431.55;1740738;82;21124;-48
2021/05/07 00:35:06;;;;;;;3.02;1.42;;;;;;;13.44;50.86;100440.44;1800608;79;21146;-48
2021/05/07 00:37:33;;;;;;;2.75;1.27;;;;;;;13.44;50.90;100449.23;1800420;80;21168;-48
2021/05/07 00:40:01;;;;;;;2.45;1.35;;;;;;;13.44;51.00;100442.61;1788540;80;21132;-48
2021/05/07 00:42:30;;;;;;;3.05;1.15;;;;;;;13.44;51.20;100433.36;1787472;79;21578;-48
2021/05/07 00:44:59;;;;;;;5.33;1.15;;;;;;;13.45;51.21;100437.75;1787027;80;21284;-64
2021/05/07 00:47:26;;;;;;;2.58;1.25;;;;;;;13.37;51.13;100440.55;1787937;79;21130;-48
2021/05/07 00:49:54;;;;;;;3.58;1.20;;;;;;;13.28;51.02;100445.14;1787201;80;21630;-64
2021/05/07 00:52:22;;;;;;;2.22;0.93;;;;;;;13.16;51.20;100445.86;1755639;80;21174;-48
2021/05/07 00:54:51;;;;;;;2.58;1.20;;;;;;;13.07;51.22;100436.80;1787230;80;21167;-64
2021/05/07 00:57:19;;;;;;;2.67;1.20;;;;;;;13.01;51.30;100444.42;1787050;80;21114;-64
2021/05/07 00:59:47;;;;;;;3.90;1.50;;;;;;;12.96;51.58;100432.20;1748729;82;21280;-64
2021/05/07 01:02:15;;;;;;;5.87;1.52;;;;;;;12.98;51.87;100439.64;1819595;79;21123;-48
2021/05/07 01:04:44;;;;;;;3.33;1.45;;;;;;;13.00;52.00;100436.52;1819308;79;21123;-64
2021/05/07 01:07:12;;;;;;;2.35;1.40;;;;;;;13.03;52.07;100444.37;1749078;82;21166;-64
2021/05/07 01:09:40;;;;;;;3.85;1.57;;;;;;;12.99;52.27;100446.66;1787240;80;21127;-64
2021/05/07 01:12:09;;;;;;;3.90;1.30;;;;;;;12.96;52.44;100447.61;1789025;80;21139;-48
2021/05/07 01:14:37;;;;;;;2.47;1.50;;;;;;;12.97;52.55;100445.83;1787412;80;21653;-56
2021/05/07 01:17:05;;;;;;;3.52;1.40;;;;;;;13.03;52.71;100444.37;1774738;80;21179;-48
2021/05/07 01:19:32;;;;;;;3.75;1.65;;;;;;;13.13;52.71;100445.05;1752453;81;21127;-64
2021/05/07 01:22:00;;;;;;;3.27;1.35;;;;;;;13.21;52.65;100445.75;1752886;82;21135;-48
2021/05/07 01:24:29;;;;;;;3.25;1.47;;;;;;;13.28;52.70;100448.67;1750377;82;21143;-49
2021/05/07 01:26:57;;;;;;;4.72;1.52;;;;;;;13.34;52.88;100448.54;1747330;82;21155;-48
2021/05/07 01:29:25;;;;;;;3.17;1.50;;;;;;;13.38;52.88;100440.96;1749473;81;21155;-48
2021/05/07 01:31:56;;;;;;;2.33;1.30;;;;;;;13.43;52.94;100439.55;1752549;82;21131;-64
2021/05/07 01:34:22;;;;;;;3.50;1.45;;;;;;;13.52;52.98;100442.42;1748794;81;21115;-47
2021/05/07 01:36:51;;;;;;;3.10;1.40;;;;;;;13.62;52.97;100448.39;1747499;81;21171;-64
2021/05/07 01:39:18;;;;;;;2.83;1.40;;;;;;;13.68;53.02;100453.53;1683534;85;21659;-48
2021/05/07 01:41:46;;;;;;;2.27;1.40;;;;;;;13.75;52.84;100453.78;1684166;84;21722;-64
2021/05/07 01:44:14;;;;;;;3.95;1.25;;;;;;;13.80;52.84;100453.22;1712071;84;21187;-64
2021/05/07 01:46:43;;;;;;;2.92;1.10;;;;;;;13.85;52.97;100449.16;1713283;84;21183;-64
2021/05/07 01:49:11;;;;;;;2.75;1.27;;;;;;;13.93;53.11;100447.63;1710768;84;21179;-48
2021/05/07 01:51:39;;;;;;;1.95;1.20;;;;;;;13.99;53.10;100446.16;1704900;83;21120;-65
2021/05/07 01:54:08;;;;;;;3.80;1.45;;;;;;;14.09;53.11;100445.45;1718947;83;21191;-48
2021/05/07 01:56:35;;;;;;;3.05;1.25;;;;;;;14.11;53.25;100436.59;1667595;85;21236;-64
2021/05/07 01:59:04;;;;;;;3.52;1.70;;;;;;;14.20;53.23;100426.64;1684779;85;21492;-65
2021/05/07 02:01:32;;;;;;;3.42;1.50;;;;;;;14.26;53.11;100432.66;1711475;84;21159;-48
2021/05/07 02:04:00;;;;;;;3.05;1.40;;;;;;;14.27;52.91;100439.69;1684781;85;21200;-64
2021/05/07 02:06:29;;;;;;;2.42;1.37;;;;;;;14.29;52.86;100434.34;1705906;83;21135;-48
2021/05/07 02:08:57;;;;;;;3.37;1.50;;;;;;;14.33;52.88;100432.50;1711795;84;21155;-48
2021/05/07 02:11:25;;;;;;;4.17;1.62;;;;;;;14.37;52.71;100428.83;1685457;84;21172;-65
2021/05/07 02:13:53;;;;;;;2.40;1.40;;;;;;;14.42;52.62;100422.95;1714853;84;21131;-48
2021/05/07 02:16:22;;;;;;;2.52;1.40;;;;;;;14.45;52.54;100424.20;1704362;84;21203;-65
2021/05/07 02:18:50;;;;;;;2.83;1.40;;;;;;;14.48;52.60;100427.23;1753795;82;21143;-49
2021/05/07 02:21:18;;;;;;;2.25;1.47;;;;;;;14.47;52.62;100432.97;1725705;83;21669;-64
2021/05/07 02:23:47;;;;;;;3.42;1.62;;;;;;;14.49;52.83;100435.12;1723160;83;21356;-48
2021/05/07 02:26:15;;;;;;;2.42;1.40;;;;;;;14.51;52.83;100428.47;1727276;82;21166;-64
2021/05/07 02:28:50;;;;;;;4.83;1.45;;;;;;;14.54;52.89;100431.04;1755457;80;21138;-65
2021/05/07 02:31:19;;;;;;;2.40;1.40;;;;;;;14.56;52.81;100428.75;1755307;82;21170;-48
2021/05/07 02:33:47;;;;;;;3.40;1.62;;;;;;;14.56;52.64;100426.57;1728676;82;21108;-48
2021/05/07 02:36:16;;;;;;;3.17;1.45;;;;;;;14.57;52.50;100435.78;1738051;82;21219;-64
2021/05/07 02:38:43;;;;;;;3.40;1.70;;;;;;;14.55;52.34;100437.60;1713291;82;21330;-64
2021/05/07 02:41:11;;;;;;;3.92;1.80;;;;;;;14.53;51.95;100431.95;1713558;82;21152;-48
2021/05/07 02:43:40;;;;;;;2.40;1.30;;;;;;;14.48;51.49;100438.67;1768566;80;21192;-48
2021/05/07 02:46:10;;;;;;;3.37;1.25;;;;;;;14.45;50.67;100445.85;1755612;82;21588;-64
2021/05/07 02:48:39;;;;;;;5.58;1.50;;;;;;;14.43;50.70;100445.44;1725554;82;21207;-49
2021/05/07 02:51:06;;;;;;;2.95;1.40;;;;;;;14.46;50.91;100447.59;1755570;82;21189;-48
2021/05/07 02:53:35;;;;;;;3.00;1.37;;;;;;;14.47;51.18;100450.18;1726026;82;21625;-48
2021/05/07 02:56:04;;;;;;;2.90;1.77;;;;;;;14.51;51.27;100448.34;1754557;82;21183;-65
2021/05/07 02:58:32;;;;;;;3.50;1.57;;;;;;;14.60;51.32;100461.77;1723772;83;21178;-49
2021/05/07 03:01:00;;;;;;;2.98;1.30;;;;;;;14.63;51.58;100459.04;1738246;82;21559;-64
2021/05/07 03:03:28;;;;;;;2.58;1.60;;;;;;;14.63;51.92;100465.19;1748099;82;21606;-49
2021/05/07 03:05:56;;;;;;;2.90;1.50;;;;;;;14.65;51.84;100466.48;1741934;82;21199;-49
2021/05/07 03:08:26;;;;;;;3.02;1.42;;;;;;;14.61;51.92;100456.41;1731721;83;21198;-48
2021/05/07 03:10:54;;;;;;;2.50;1.35;;;;;;;14.56;52.01;100455.70;1755609;82;21741;-49
2021/05/07 03:13:22;;;;;;;4.70;1.75;;;;;;;14.58;51.83;100449.44;1755688;80;21582;-66
2021/05/07 03:15:51;;;;;;;4.75;1.60;;;;;;;14.64;51.77;100451.50;1719825;83;21147;-49
2021/05/07 03:18:21;;;;;;;3.17;1.40;;;;;;;14.67;51.87;100461.55;1731364;83;21159;-66
2021/05/07 03:20:50;;;;;;;13.43;2.35;;;;;;;14.72;52.17;100468.95;1742096;82;21187;-65
2021/05/07 03:23:18;;;;;;;6.10;1.85;;;;;;;14.75;52.50;100475.07;1785574;79;21170;-65
2021/05/07 03:25:47;;;;;;;3.95;1.65;;;;;;;14.76;52.33;100472.39;1779133;79;21826;-49
2021/05/07 03:28:15;;;;;;;6.10;1.90;;;;;;;14.79;52.42;100474.92;1779035;81;21208;-65
2021/05/07 03:30:43;;;;;;;2.20;1.52;;;;;;;14.86;52.30;100470.34;1779054;81;21123;-49
2021/05/07 03:33:10;;;;;;;4.17;1.52;;;;;;;14.92;52.34;100468.84;1778998;81;21599;-49
2021/05/07 03:35:39;;;;;;;4.30;1.62;;;;;;;14.97;52.30;100468.70;1778618;80;21156;-49
2021/05/07 03:38:06;;;;;;;9.53;2.30;;;;;;;15.02;52.24;100465.46;1779055;81;21177;-66
2021/05/07 03:40:34;;;;;;;10.93;2.08;;;;;;;15.02;52.26;100465.46;1779392;79;21676;-50
2021/05/07 03:43:02;;;;;;;13.03;2.47;;;;;;;15.13;52.07;100463.81;1779271;80;21175;-50
2021/05/07 03:45:30;;;;;;;8.15;2.58;;;;;;;15.24;52.01;100459.50;1779321;81;21164;-50
2021/05/07 03:47:59;;;;;;;9.70;2.60;;;;;;;15.32;52.01;100457.48;1778767;81;21147;-65
2021/05/07 03:50:28;;;;;;;4.28;1.95;;;;;;;15.39;51.76;100461.69;1793821;79;21127;-65
2021/05/07 03:52:56;;;;;;;5.70;2.00;;;;;;;15.44;51.80;100461.56;1741834;82;21686;-51
2021/05/07 03:55:23;;;;;;;2.98;1.65;;;;;;;15.19;52.45;100458.33;1810796;79;21567;-65
2021/05/07 03:57:51;;;;;;;3.10;1.80;;;;;;;15.38;52.17;100451.14;1741659;82;21298;-65
2021/05/07 04:00:22;;;;;;;3.37;1.80;;;;;;;15.44;52.08;100456.27;1784814;79;21607;-51
2021/05/07 04:02:49;;;;;;;;;;;;;;;15.45;52.23;100452.70;1781398;81;21143;-66
2021/05/07 04:05:17;;;;;;;8.63;1.70;;;;;;;15.46;52.54;100444.67;1783101;79;20272;-66
2021/05/07 04:07:51;;;;;;;3.17;1.92;;;;;;;15.51;52.51;100449.83;1779080;79;21163;-50
2021/05/07 04:10:18;;;;;;;5.25;2.33;;;;;;;15.57;52.52;100447.45;1778921;80;21119;-66
2021/05/07 04:15:16;;;;;;;3.80;2.10;;;;;;;15.68;52.66;100451.93;1778724;81;21163;-53
2021/05/07 04:17:45;;;;;;;8.13;1.95;;;;;;;15.76;52.65;100454.36;1788854;79;21143;-66
2021/05/07 04:20:13;;;;;;;5.35;2.45;;;;;;;15.85;52.81;100458.48;1783314;79;21542;-66
2021/05/07 04:22:41;;;;;;;5.08;2.08;;;;;;;15.96;52.91;100463.45;1778705;81;21665;-67
2021/05/07 04:25:10;;;;;;;5.22;2.10;;;;;;;16.10;52.85;100463.87;1787550;79;21108;-67
2021/05/07 04:27:38;;;;;;;4.87;1.90;;;;;;;16.27;52.64;100463.77;1780312;79;21198;-67
2021/05/07 04:30:07;;;;;;;5.70;2.25;;;;;;;16.45;52.27;100462.25;1783169;79;21142;-52
2021/05/07 04:32:35;;;;;;;6.47;2.20;;;;;;;16.60;51.94;100461.68;1791294;79;21167;-66
2021/05/07 04:35:05;;;;;;;2.70;1.60;;;;;;;16.75;51.32;100456.30;1780540;79;21575;-67
2021/05/07 04:37:32;;;;;;;2.60;1.52;;;;;;;16.86;50.57;100456.33;1783063;79;21186;-67
2021/05/07 04:40:00;;;;;;;3.90;1.67;;;;;;;16.93;50.19;100452.08;1783562;79;21602;-51
2021/05/07 04:42:28;;;;;;;3.30;1.60;;;;;;;17.00;50.00;100453.22;1789960;79;21527;-67
2021/05/07 04:44:56;;;;;;;3.80;2.00;;;;;;;17.07;49.01;100459.56;1792086;79;21269;-67
2021/05/07 04:47:24;;;;;;;5.30;1.75;;;;;;;17.19;49.20;100462.20;1778937;81;21532;-52
2021/05/07 04:49:52;;;;;;;3.92;1.75;;;;;;;17.28;49.46;100461.45;1778661;81;21135;-52
2021/05/07 04:52:20;;;;;;;3.30;1.62;;;;;;;17.39;49.34;100460.57;1783268;79;21127;-53
2021/05/07 04:54:49;;;;;;;3.02;1.75;;;;;;;17.50;49.29;100460.98;1801542;79;21123;-51
2021/05/07 04:57:17;;;;;;;4.03;1.65;;;;;;;17.63;48.91;100463.16;1726985;82;21270;-51
2021/05/07 04:59:44;;;;;;;4.17;1.87;;;;;;;17.81;49.17;100457.10;1712879;82;21582;-66
2021/05/07 05:02:12;;;;;;;4.65;2.47;;;;;;;18.02;49.40;100454.48;1778880;81;21151;-66
2021/05/07 05:04:40;;;;;;;5.72;2.10;;;;;;;18.25;49.33;100448.17;1779476;79;21162;-51
2021/05/07 05:07:09;;;;;;;5.85;1.80;;;;;;;18.46;49.33;100440.64;1779217;81;21163;-52
2021/05/07 05:09:37;;;;;;;6.00;2.47;;;;;;;18.69;49.45;100441.83;1779230;81;21308;-67
2021/05/07 05:12:07;;;;;;;4.92;2.67;;;;;;;18.92;48.36;100437.70;1721408;82;21309;-51
2021/05/07 05:14:34;;;;;;;4.75;2.55;;;;;;;19.09;48.33;100430.28;1783389;79;21175;-52
2021/05/07 05:17:02;;;;;;;5.47;3.00;;;;;;;19.19;48.20;100425.36;1728720;82;21146;-52
2021/05/07 05:19:31;;;;;;;5.72;2.95;;;;;;;19.39;48.56;100414.61;1793080;79;21558;-52
2021/05/07 05:21:59;;;;;;;6.85;2.98;;;;;;;19.61;48.72;100409.08;1787633;79;21245;-67
2021/05/07 05:24:28;;;;;;;4.67;2.98;;;;;;;19.91;48.64;100415.17;1787165;80;21589;-66
2021/05/07 05:26:56;;;;;;;4.55;3.02;;;;;;;20.09;48.76;100417.83;1787611;80;21596;-66
2021/05/07 05:29:27;;;;;;;6.03;3.12;;;;;;;20.28;48.72;100425.78;1719950;83;21191;-52
2021/05/07 05:31:55;;;;;;;5.15;3.08;;;;;;;20.52;48.37;100428.58;1818232;79;21595;-67
2021/05/07 05:34:23;;;;;;;7.03;3.35;;;;;;;20.68;48.32;100425.45;1736282;82;21150;-53
2021/05/07 05:36:51;;;;;;;6.37;3.77;;;;;;;20.83;47.46;100428.28;1798666;80;21686;-67
2021/05/07 05:39:19;;;;;;;5.83;3.55;;;;;;;20.94;47.53;100424.55;1787292;80;21523;-53
2021/05/07 05:41:46;;;;;;;11.33;4.70;;;;;;;21.06;47.39;100428.36;1787414;80;21196;-67
2021/05/07 05:44:14;;;;;;;6.37;3.62;;;;;;;21.10;46.06;100428.09;1787474;79;21610;-66
2021/05/07 05:46:42;;;;;;;8.13;4.10;;;;;;;21.15;45.65;100431.86;1787216;79;21611;-53
2021/05/07 05:49:10;;;;;;;12.75;4.72;;;;;;;21.17;45.59;100440.67;1787089;80;21534;-67
2021/05/07 05:51:38;;;;;;;17.40;5.85;;;;;;;21.23;45.90;100448.33;1787129;80;21138;-65
2021/05/07 05:54:07;;;;;;;9.00;6.03;;;;;;;21.27;45.25;100449.04;1787204;79;21313;-51
2021/05/07 05:56:35;;;;;;;12.00;5.12;;;;;;;21.29;45.15;100451.62;1802623;79;21288;-66
2021/05/07 05:59:03;;;;;;;7.87;5.00;;;;;;;21.34;45.38;100455.78;1723622;82;21178;-66
2021/05/07 06:01:31;;;;;;;13.50;4.72;;;;;;;21.49;45.65;100465.21;1787581;79;21124;-52
2021/05/07 06:03:59;;;;;;;8.18;5.00;;;;;;;21.51;45.85;100467.33;1787272;80;21154;-66
2021/05/07 06:06:27;;;;;;;7.53;4.40;;;;;;;21.76;45.23;100476.69;1792621;79;21138;-52
2021/05/07 06:08:55;;;;;;;8.93;3.83;;;;;;;21.86;44.84;100476.52;1819462;79;21606;-65
2021/05/07 06:11:22;;;;;;;6.65;3.90;;;;;;;21.95;44.16;100472.45;1819430;79;21607;-66
2021/05/07 06:13:50;;;;;;;6.55;3.70;;;;;;;21.77;45.06;100479.75;1788723;79;21166;-66
2021/05/07 06:16:17;;;;;;;9.93;4.00;;;;;;;21.79;45.45;100481.87;1787915;79;21582;-65
2021/05/07 06:18:46;;;;;;;6.00;3.47;;;;;;;21.86;44.89;100482.36;1787002;80;21190;-51
2021/05/07 06:21:14;;;;;;;10.00;6.17;;;;;;;22.25;44.04;100483.18;1732916;82;21480;-51
2021/05/07 06:23:42;;;;;;;11.85;5.35;;;;;;;22.37;43.82;100483.38;1719899;83;21179;-51
2021/05/07 06:26:10;;;;;;;6.25;3.72;;;;;;;22.56;44.15;100477.78;1797808;80;21173;-53
2021/05/07 06:28:38;;;;;;;20.00;11.63;;;;;;;22.64;43.44;100471.48;1800738;79;21586;-66
2021/05/07 06:31:05;;;;;;;9.33;6.70;;;;;;;22.78;43.26;100463.06;1796506;79;21169;-53
2021/05/07 06:33:33;;;;;;;10.23;3.50;;;;;;;22.93;42.44;100458.09;1787046;80;21310;-68
2021/05/07 06:36:01;;;;;;;8.18;3.70;;;;;;;23.08;41.79;100455.37;1787248;80;21564;-65
2021/05/07 06:38:30;;;;;;;6.80;3.25;;;;;;;23.18;41.72;100447.96;1787090;80;21144;-53
2021/05/07 06:40:57;;;;;;;5.83;2.85;;;;;;;23.21;40.91;100448.73;1815857;79;21554;-53
2021/05/07 06:43:27;;;;;;;6.55;3.02;;;;;;;23.32;41.30;100455.65;1805793;79;21119;-65
2021/05/07 06:45:55;;;;;;;4.35;3.00;;;;;;;23.36;39.52;100453.64;1787340;79;21309;-64
2021/05/07 06:48:23;;;;;;;5.80;2.85;;;;;;;23.39;39.96;100440.02;1787343;79;21567;-66
2021/05/07 06:50:51;;;;;;;12.18;3.50;;;;;;;23.46;40.06;100433.25;1787176;80;21578;-55
2021/05/07 06:53:20;;;;;;;5.15;3.02;;;;;;;23.58;40.51;100430.27;1787318;79;21332;-64
2021/05/07 06:55:48;;;;;;;6.08;2.47;;;;;;;23.69;40.24;100428.20;1787070;80;21169;-66
2021/05/07 06:58:18;;;;;;;8.58;2.75;;;;;;;23.03;40.41;100439.08;1791707;79;21459;-53
2021/05/07 07:00:46;;;;;;;3.67;1.92;;;;;;;23.49;39.84;100434.40;1752826;82;21159;-66
2021/05/07 07:03:14;;;;;;;4.40;2.10;;;;;;;23.67;37.99;100425.59;1779744;80;21556;-53
2021/05/07 07:05:42;;;;;;;7.70;2.12;;;;;;;23.71;37.89;100420.41;1750024;82;21301;-53
2021/05/07 07:08:10;;;;;;;91.35;12.85;;;;;;;23.75;37.99;100419.23;1817039;79;21138;-64
2021/05/07 07:10:37;;;;;;;3.95;1.90;;;;;;;23.77;37.97;100432.58;1787500;79;21581;-64
2021/05/07 07:13:05;;;;;;;4.22;1.87;;;;;;;23.58;37.59;100432.95;1793988;79;21546;-65
2021/05/07 07:15:34;;;;;;;5.42;1.90;;;;;;;23.48;38.04;100431.83;1804455;79;21107;-65
2021/05/07 07:18:03;;;;;;;4.08;2.00;;;;;;;23.37;38.69;100433.39;1803815;79;21154;-65
2021/05/07 07:20:31;;;;;;;4.40;2.10;;;;;;;23.31;38.78;100434.66;1799761;79;21168;-51
2021/05/07 07:23:00;;;;;;;4.80;1.75;;;;;;;22.98;40.53;100437.16;1787376;80;21312;-65
2021/05/07 07:25:28;;;;;;;4.50;1.90;;;;;;;23.42;39.59;100437.98;1719969;83;21192;-52
2021/05/07 07:27:55;;;;;;;6.58;1.57;;;;;;;23.51;38.83;100441.03;1796088;79;21590;-66
2021/05/07 07:30:23;;;;;;;4.20;1.80;;;;;;;23.59;38.31;100446.77;1787215;80;21588;-66
2021/05/07 07:32:51;;;;;;;6.47;1.90;;;;;;;23.61;37.91;100437.63;1787323;80;21561;-65
2021/05/07 07:35:19;;;;;;;4.03;1.72;;;;;;;23.58;38.15;100441.86;1787183;80;21565;-65
2021/05/07 07:37:47;;;;;;;5.87;2.02;;;;;;;23.53;38.40;100439.11;1787354;80;21155;-52
2021/05/07 07:40:16;;;;;;;5.40;2.00;;;;;;;23.54;38.68;100435.45;1787028;80;21277;-66
2021/05/07 07:42:43;;;;;;;3.55;1.62;;;;;;;23.64;39.23;100431.67;1787366;80;21159;-52
2021/05/07 07:45:13;;;;;;;3.30;1.90;;;;;;;23.67;38.18;100424.75;1786972;80;21717;-63
2021/05/07 07:47:41;;;;;;;3.70;1.70;;;;;;;23.74;39.04;100431.44;1721126;82;21542;-66
2021/05/07 07:50:10;;;;;;;5.40;2.40;;;;;;;23.85;39.26;100415.93;1787312;80;21136;-49
2021/05/07 07:52:39;;;;;;;5.28;2.40;;;;;;;23.89;38.86;100413.42;1787316;80;21175;-50
2021/05/07 07:55:09;;;;;;;3.92;1.80;;;;;;;23.92;38.82;100401.12;1787043;80;21527;-52
2021/05/07 07:57:37;;;;;;;3.60;1.50;;;;;;;23.91;38.72;100402.92;1787113;80;21297;-51
2021/05/07 08:00:07;;;;;;;2.22;1.40;;;;;;;23.76;38.18;100407.52;1719847;83;21163;-65
2021/05/07 08:02:41;;;;;;;2.98;1.37;;;;;;;23.69;38.64;100420.98;1787422;80;21139;-66
2021/05/07 08:05:11;;;;;;;6.70;1.60;;;;;;;23.66;38.51;100416.31;1723385;82;21171;-65
2021/05/07 08:07:39;;;;;;;2.63;1.30;;;;;;;23.64;38.20;100416.40;1819725;79;21151;-52
2021/05/07 08:10:08;;;;;;;3.20;1.60;;;;;;;23.73;37.95;100417.13;1787910;79;22103;-66
2021/05/07 08:12:36;;;;;;;3.00;1.50;;;;;;;23.80;38.59;100427.00;1787347;80;21163;-52
2021/05/07 08:15:06;;;;;;;3.10;1.60;;;;;;;23.77;38.01;100419.15;1791031;79;21515;-51
2021/05/07 08:17:35;;;;;;;;;;;;;;;23.78;37.75;100415.50;1791860;79;21107;-51
2021/05/07 08:20:05;;;;;;;4.42;2.30;;;;;;;23.67;38.25;100416.19;1788158;79;20159;-64
2021/05/07 08:22:33;;;;;;;2.65;1.57;;;;;;;23.56;38.45;100422.30;1787244;79;21289;-51
2021/05/07 08:25:02;;;;;;;1.92;1.20;;;;;;;23.49;37.74;100433.05;1786974;80;21192;-65
2021/05/07 08:27:30;;;;;;;3.47;1.35;;;;;;;23.38;37.04;100423.52;1786982;80;21130;-51
2021/05/07 08:29:58;;;;;;;5.12;1.47;;;;;;;23.24;37.15;100421.72;1787030;79;21274;-52
2021/05/07 08:32:25;;;;;;;3.75;1.52;;;;;;;23.14;37.44;100430.82;1787716;79;21594;-52
2021/05/07 08:34:53;;;;;;;17.05;3.40;;;;;;;22.95;36.92;100432.02;1787435;80;21120;-51
2021/05/07 08:37:21;;;;;;;5.53;1.62;;;;;;;22.93;37.63;100431.72;1787302;79;21535;-65
2021/05/07 08:39:50;;;;;;;5.28;2.05;;;;;;;22.89;37.79;100437.77;1786968;80;21198;-65
2021/05/07 08:42:18;;;;;;;4.22;2.00;;;;;;;22.89;38.13;100425.70;1787215;80;21585;-51
2021/05/07 08:44:47;;;;;;;5.67;3.02;;;;;;;22.96;38.52;100422.12;1787036;79;21581;-50
2021/05/07 08:47:20;;;;;;;8.35;2.80;;;;;;;23.05;38.37;100422.89;1787139;80;21171;-52
2021/05/07 08:49:49;;;;;;;7.62;3.52;;;;;;;23.27;38.11;100425.08;1786982;80;21202;-66
2021/05/07 08:52:18;;;;;;;5.28;2.40;;;;;;;23.31;37.71;100409.16;1800858;79;21269;-66
2021/05/07 08:54:47;;;;;;;3.45;1.72;;;;;;;23.36;38.09;100409.34;1819368;79;21163;-51
2021/05/07 08:57:15;;;;;;;6.72;1.70;;;;;;;23.42;38.03;100410.25;1819418;79;21147;-53
2021/05/07 08:59:43;;;;;;;6.33;1.50;;;;;;;23.51;37.64;100410.98;1819225;79;21159;-65
2021/05/07 09:02:27;;;;;;;3.42;1.80;;;;;;;23.45;36.83;100405.55;1811138;79;21673;-51
2021/05/07 09:04:56;;;;;;;4.70;2.20;;;;;;;23.57;37.51;100405.70;1787263;80;21974;-66
2021/05/07 09:07:24;;;;;;;3.90;2.00;;;;;;;23.54;37.53;100405.91;1737025;82;21586;-52
2021/05/07 09:09:59;;;;;;;8.60;2.92;;;;;;;23.51;37.79;100416.86;1790923;79;21157;-51
2021/05/07 09:12:34;;;;;;;6.00;3.08;;;;;;;23.48;36.74;100409.84;1787371;79;21535;-65
2021/05/07 09:15:07;;;;;;;3.10;1.57;;;;;;;23.37;35.26;100407.88;1786976;80;21172;-52
2021/05/07 09:17:38;;;;;;;15.50;1.80;;;;;;;23.22;35.70;100402.13;1791378;79;21155;-51
2021/05/07 09:20:14;;;;;;;3.90;1.57;;;;;;;23.15;36.09;100397.19;1779070;79;21162;-51
2021/05/07 09:22:43;;;;;;;4.05;1.45;;;;;;;23.12;36.81;100404.09;1789181;80;21689;-65
2021/05/07 09:25:17;;;;;;;3.90;1.87;;;;;;;23.11;37.60;100396.12;1722490;83;21180;-52
2021/05/07 09:27:45;;;;;;;4.80;2.00;;;;;;;23.27;37.44;100399.57;1789520;79;21695;-52
2021/05/07 09:30:24;;;;;;;5.33;1.80;;;;;;;23.56;37.69;100398.11;1802891;79;21151;-65
2021/05/07 09:32:53;;;;;;;3.90;1.50;;;;;;;23.86;37.48;100394.81;1789567;80;21134;-65
2021/05/07 09:35:29;;;;;;;7.55;2.00;;;;;;;24.00;37.32;100397.92;1789730;80;21249;-51
2021/05/07 09:37:58;;;;;;;7.95;1.72;;;;;;;23.97;38.37;100396.75;1722004;83;21190;-51
2021/05/07 09:40:27;;;;;;;3.80;1.72;;;;;;;23.90;37.26;100395.83;1789643;80;21167;-65
2021/05/07 09:43:07;;;;;;;5.80;1.60;;;;;;;23.80;37.88;100400.13;1789803;79;21578;-51
2021/05/07 09:45:36;;;;;;;3.98;1.75;;;;;;;23.67;37.63;100404.10;1744086;82;21636;-51
2021/05/07 09:48:26;;;;;;;5.97;1.40;;;;;;;23.50;38.28;100397.67;1789891;79;21163;-65
2021/05/07 09:53:37;;;;;;;8.50;2.17;;;;;;;23.30;39.80;100397.16;1853100;77;22147;-65
2021/05/07 09:56:16;;;;;;;3.72;1.70;;;;;;;23.17;39.94;100389.02;1755190;81;21180;-64
2021/05/07 09:58:45;;;;;;;4.50;1.80;;;;;;;22.95;40.14;100383.71;1749927;81;21149;-51
2021/05/07 10:01:12;;;;;;;4.33;2.00;;;;;;;22.73;40.76;100388.25;1728607;81;21579;-50
2021/05/07 10:03:40;;;;;;;3.83;1.70;;;;;;;22.49;41.18;100393.33;1728628;83;21197;-51
2021/05/07 10:06:09;;;;;;;6.15;1.70;;;;;;;22.49;41.72;100387.47;1728512;83;21511;-64
2021/05/07 10:08:45;;;;;;;4.60;2.00;;;;;;;22.45;41.86;100387.77;1728975;81;21552;-51
2021/05/07 10:11:15;;;;;;;4.15;1.52;;;;;;;22.43;41.75;100385.13;1727782;83;21177;-51
2021/05/07 10:13:44;;;;;;;4.97;2.10;;;;;;;22.47;42.40;100392.56;1728284;83;21628;-65
2021/05/07 10:16:12;;;;;;;7.05;2.52;;;;;;;22.39;42.42;100372.87;1728252;83;21191;-51
2021/05/07 10:18:42;;;;;;;;;;;;;;;22.48;42.73;100384.90;1742106;81;21146;-51
2021/05/07 10:21:14;;;;;;;5.90;1.95;;;;;;;22.43;42.40;100372.64;1747708;82;20155;-51
2021/05/07 10:23:52;;;;;;;6.47;2.65;;;;;;;22.51;42.43;100381.53;1749598;82;21179;-51
2021/05/07 10:26:34;;;;;;;6.70;2.80;;;;;;;22.55;43.05;100376.36;1744177;81;21606;-51
2021/05/07 10:29:16;;;;;;;5.22;2.22;;;;;;;22.62;43.90;100370.13;1736752;81;21182;-66
2021/05/07 10:31:51;;;;;;;7.30;2.17;;;;;;;22.61;43.36;100373.77;1758154;81;21170;-66
2021/05/07 10:34:21;;;;;;;4.90;2.80;;;;;;;22.55;43.44;100372.34;1758295;81;21555;-52
2021/05/07 10:36:57;;;;;;;7.53;2.85;;;;;;;22.54;43.59;100371.08;1729652;81;21140;-51
2021/05/07 10:39:28;;;;;;;7.12;2.17;;;;;;;22.45;44.10;100368.51;1745658;81;21578;-51
2021/05/07 10:41:58;;;;;;;5.62;2.37;;;;;;;22.17;44.18;100379.58;1781951;80;21155;-66
2021/05/07 10:44:27;;;;;;;5.10;2.15;;;;;;;22.15;44.88;100368.08;1785938;80;21225;-52
2021/05/07 10:47:09;;;;;;;5.37;2.80;;;;;;;22.22;45.17;100366.76;1762290;80;21152;-49
2021/05/07 10:49:42;;;;;;;6.60;2.25;;;;;;;22.25;45.53;100367.91;1763452;80;21134;-51
2021/05/07 10:52:11;;;;;;;6.05;2.20;;;;;;;22.29;45.31;100357.84;1755295;81;21164;-64
2021/05/07 10:54:46;;;;;;;7.58;2.40;;;;;;;22.35;44.56;100362.83;1744653;82;21132;-50
2021/05/07 10:57:28;;;;;;;5.95;1.98;;;;;;;22.32;44.50;100357.66;1743738;82;21170;-65
2021/05/07 11:00:02;;;;;;;10.08;2.42;;;;;;;22.32;44.72;100351.42;1780135;79;21218;-64
2021/05/07 11:02:44;;;;;;;7.33;2.22;;;;;;;22.21;44.52;100341.37;1779737;79;21116;-52
2021/05/07 11:05:12;;;;;;;7.83;2.40;;;;;;;22.26;44.66;100339.27;1778705;81;21180;-51
2021/05/07 11:07:53;;;;;;;4.03;2.30;;;;;;;22.19;45.90;100331.22;1779250;81;21167;-52
2021/05/07 11:10:29;;;;;;;8.95;2.50;;;;;;;22.12;46.36;100347.67;1789616;79;21156;-51
2021/05/07 11:12:57;;;;;;;6.78;2.52;;;;;;;22.11;46.35;100349.97;1784649;79;21160;-51
2021/05/07 11:15:25;;;;;;;7.78;3.67;;;;;;;21.97;47.45;100339.25;1779299;79;21138;-51
2021/05/07 11:18:11;;;;;;;7.05;2.98;;;;;;;21.80;47.78;100340.28;1742359;81;21153;-51
2021/05/07 11:20:41;;;;;;;8.78;4.10;;;;;;;21.54;48.94;100337.28;1778692;81;21216;-64
2021/05/07 11:23:10;;;;;;;8.75;3.90;;;;;;;21.36;49.12;100335.22;1779569;79;21123;-50
2021/05/07 11:25:40;;;;;;;6.78;3.27;;;;;;;21.28;50.28;100338.80;1779318;81;21171;-51
2021/05/07 11:28:18;;;;;;;10.00;4.55;;;;;;;21.20;50.03;100340.11;1712490;84;21172;-51
2021/05/07 11:30:58;;;;;;;8.43;3.77;;;;;;;21.20;50.08;100333.91;1781179;79;21149;-65
2021/05/07 11:33:30;;;;;;;8.25;2.98;;;;;;;21.19;49.91;100329.50;1808046;79;21543;-51
2021/05/07 11:36:12;;;;;;;8.00;3.10;;;;;;;21.23;49.64;100325.70;1740225;82;21657;-51
2021/05/07 11:38:41;;;;;;;6.22;3.05;;;;;;;21.25;49.62;100321.98;1795608;79;21138;-65